Barter Island LRRS, AK

10:29 AM AKST on December 18, 2014 (GMT -0900)
Barter Island LRRS | Change Station
CLOSE
Current Station
Airport
Location: Barter Island,
Elevation: 7 ft
Nearby Weather Stations

Elev 7 ft 70.13 °N, 143.58 °W | Updated 28 minutes ago

Light Snow
Light Snow
0 °F
Feels Like -8 °F
N
4
Wind Variable Wind from North

Today
High -- | Low -- °F
--% Chance of Precip.
Yesterday
High -- | Low -- °F
Precip. -- in
2:00 PM 2:00 PM
Waning Crescent, 13% visible
Pressure 29.88 in
Visibility 9.0 miles
Clouds Overcast 6000 ft
Windchill -8 °F
Dew Point -4 °F
Humidity 83%
Rainfall 0.00 in
Snow Depth Not available.
UV 0 out of 12
Pollen Not available.
Air Quality Not available.
Flu Activity Not available.
METAR PABA 181901Z AUTO 35003KT 9SM -SN OVC060 M18/M20 A2988 RMK AO2 SLP119 P0000 T11781200 FZRANO

More Conditions Fewer Conditions

Pressure 29.88 in
Visibility 9.0 miles
Clouds Overcast 6000 ft
Windchill -8 °F
Dew Point -4 °F
Humidity 83%
Rainfall 0.00 in
Snow Depth Not available.
UV 0 out of 12
Pollen Not available.
Air Quality Not available.
Flu Activity Not available.
METAR PABA 181901Z AUTO 35003KT 9SM -SN OVC060 M18/M20 A2988 RMK AO2 SLP119 P0000 T11781200 FZRANO

More Conditions Fewer Conditions

10-Day Weather Forecast

Almanac

Astronomy

Dec. 18, 2014 Rise Set
Actual Time
Civil Twilight
Nautical Twilight
Astronomical Twilight
Moon
Length of Visible Light
Length of Day
Tomorrow will be .
, % of the Moon is Illuminated

Today's Extremes

State Highs State Lows

Community

WunderPhotos

Upload Photos

1,778,982 photos uploaded!

WunderBlogs® & News

Nearby

Air Quality

  Air Quality AQ Index Pollutant
Not available.

Snow Depth

Station Depth Elevation

Earthquake Activity

City Distance Mag. Time & Date
Minimum magnitude displayed is 2.5.

Coastal Water Temperatures

Place Temperature

Nearby Weather Stations